Time;durP1;ratioP1;P1;durP2;ratioP2;P2;SDS_P1;SDS_P2;PMS_P1;PMS_P2;Temp;Humidity;BMP_temperature;BMP_pressure;BME280_temperature;BME280_humidity;BME280_pressure;Samples;Min_cycle;Max_cycle;Signal;HPM_P1;HPM_P2
2022/01/10 00:02:03;;;;;;;8.27;5.18;;;;;;;17.95;25.19;99058.41;5154825;27;20134;-62
2022/01/10 00:04:29;;;;;;;7.00;4.95;;;;;;;17.87;24.94;99045.91;5153954;27;20083;-63
2022/01/10 00:06:55;;;;;;;8.25;5.25;;;;;;;17.85;25.01;99050.66;5154785;27;20031;-62
2022/01/10 00:09:20;;;;;;;6.68;4.88;;;;;;;17.81;25.07;99044.81;5136352;27;20026;-63
2022/01/10 00:11:46;;;;;;;7.75;4.80;;;;;;;17.84;24.89;99051.66;5154946;27;20019;-63
2022/01/10 00:14:11;;;;;;;7.03;5.05;;;;;;;17.79;24.94;99048.69;5154055;27;20058;-63
2022/01/10 00:16:37;;;;;;;7.88;4.53;;;;;;;17.71;25.14;99054.91;5136178;27;20041;-62
2022/01/10 00:19:03;;;;;;;6.43;4.50;;;;;;;17.67;25.07;99051.78;5154531;27;20057;-60
2022/01/10 00:21:29;;;;;;;8.05;5.60;;;;;;;17.63;25.19;99050.47;5154798;27;20053;-63
2022/01/10 00:23:55;;;;;;;7.85;5.00;;;;;;;17.63;24.88;99052.31;5155804;27;20038;-63
2022/01/10 00:26:20;;;;;;;6.82;4.30;;;;;;;17.61;24.98;99043.63;5154552;27;20084;-61
2022/01/10 00:28:46;;;;;;;6.22;4.70;;;;;;;17.58;25.14;99052.84;5135251;27;20030;-63
2022/01/10 00:31:12;;;;;;;7.15;4.18;;;;;;;17.49;25.28;99045.88;5152710;27;20091;-62
2022/01/10 00:33:37;;;;;;;6.07;4.35;;;;;;;17.45;25.23;99047.25;5144721;27;20126;-63
2022/01/10 00:36:03;;;;;;;7.35;4.57;;;;;;;17.44;25.21;99043.75;5152246;27;20041;-60
2022/01/10 00:38:29;;;;;;;8.57;4.18;;;;;;;17.43;25.17;99043.91;5154064;27;20030;-63
2022/01/10 00:40:54;;;;;;;8.00;4.03;;;;;;;17.34;25.26;99033.28;5154842;27;20489;-62
2022/01/10 00:43:30;;;;;;;7.70;4.72;;;;;;;17.31;25.01;99040.84;5153946;27;20038;-62
2022/01/10 00:45:56;;;;;;;5.88;4.13;;;;;;;17.23;25.39;99044.41;5153790;27;20450;-63
2022/01/10 00:48:22;;;;;;;8.43;4.88;;;;;;;17.17;25.26;99045.09;5153668;27;20034;-62
2022/01/10 00:50:47;;;;;;;5.35;4.18;;;;;;;17.12;25.26;99040.28;5153754;27;20061;-63
2022/01/10 00:53:13;;;;;;;6.28;4.00;;;;;;;17.32;25.56;99042.50;5163693;27;20030;-63
2022/01/10 00:55:38;;;;;;;5.82;3.83;;;;;;;17.62;25.40;99045.31;5161947;27;20484;-63
2022/01/10 00:58:04;;;;;;;5.55;4.20;;;;;;;17.88;25.32;99044.09;5154235;27;20072;-64
2022/01/10 01:00:29;;;;;;;6.45;3.90;;;;;;;18.09;25.34;99040.75;5154564;27;20137;-62
2022/01/10 01:02:58;;;;;;;6.78;4.50;;;;;;;18.27;25.10;99043.06;5153484;27;20094;-64
2022/01/10 01:05:24;;;;;;;5.60;4.43;;;;;;;18.40;24.58;99037.09;5153667;27;20034;-64
2022/01/10 01:07:50;;;;;;;6.10;3.90;;;;;;;18.51;24.54;99028.59;5154158;27;20037;-64
2022/01/10 01:19:00;;;;;;;6.20;4.53;;;;;;;18.82;24.12;99024.06;5153616;27;20027;-64
2022/01/10 01:26:25;;;;;;;6.10;3.75;;;;;;;18.96;24.19;99022.38;5162383;27;20058;-63
2022/01/10 01:28:51;;;;;;;6.47;4.65;;;;;;;18.98;23.95;99012.31;5153723;27;20054;-63
2022/01/10 01:31:16;;;;;;;9.02;4.53;;;;;;;19.01;23.91;99019.97;5154288;27;20484;-63
2022/01/10 01:33:42;;;;;;;5.65;4.18;;;;;;;19.05;24.00;99019.41;5165180;27;20027;-62
2022/01/10 01:36:08;;;;;;;6.45;4.50;;;;;;;19.07;23.90;99013.84;5159875;27;20047;-62
2022/01/10 01:38:34;;;;;;;5.75;3.83;;;;;;;19.10;23.94;99013.47;5153134;27;20547;-62
2022/01/10 01:41:17;;;;;;;5.05;3.95;;;;;;;19.13;24.20;99013.09;5156836;27;20041;-61
2022/01/10 01:43:43;;;;;;;6.15;4.28;;;;;;;19.13;24.09;99002.38;5148492;27;20125;-63
2022/01/10 01:46:09;;;;;;;7.05;3.95;;;;;;;19.16;24.00;99007.38;5153287;27;20438;-60
2022/01/10 01:48:35;;;;;;;5.68;4.20;;;;;;;19.17;24.00;99003.66;5154040;27;20030;-58
2022/01/10 01:51:02;;;;;;;6.28;4.38;;;;;;;19.18;23.84;98991.06;5129384;27;20027;-63
2022/01/10 01:53:27;;;;;;;7.43;4.60;;;;;;;19.20;24.05;98992.53;5156805;27;20041;-61
2022/01/10 01:55:53;;;;;;;5.50;4.32;;;;;;;19.24;24.05;99000.19;5154187;27;20039;-62
2022/01/10 01:58:19;;;;;;;5.97;4.22;;;;;;;19.23;23.97;98999.38;5157502;27;20023;-63
2022/01/10 02:00:44;;;;;;;5.15;3.90;;;;;;;19.25;23.98;99002.72;5157674;27;20110;-61
2022/01/10 02:03:10;;;;;;;5.55;4.07;;;;;;;19.26;23.94;99001.69;5156465;27;20050;-62
2022/01/10 02:05:36;;;;;;;5.60;4.20;;;;;;;19.25;23.92;98999.19;5156413;27;20030;-63
2022/01/10 02:08:02;;;;;;;4.75;3.53;;;;;;;19.25;24.03;98996.50;5157103;27;20481;-63
2022/01/10 02:10:28;;;;;;;6.85;3.55;;;;;;;19.27;24.02;98989.09;5157785;27;20030;-63
2022/01/10 02:12:53;;;;;;;6.38;3.70;;;;;;;19.28;24.03;98991.56;5156182;27;20042;-63
2022/01/10 02:15:46;;;;;;;6.45;3.70;;;;;;;19.28;24.11;98993.44;5159043;27;20066;-62
2022/01/10 02:18:14;;;;;;;6.10;4.30;;;;;;;19.27;24.09;98986.41;5159728;27;20029;-63
2022/01/10 02:20:39;;;;;;;6.47;3.83;;;;;;;19.28;23.99;98994.25;5157330;27;20026;-63
2022/01/10 02:23:05;;;;;;;7.30;5.05;;;;;;;19.29;23.97;98989.75;5156670;27;20053;-62
2022/01/10 02:25:30;;;;;;;5.80;3.83;;;;;;;19.30;24.02;98996.78;5148623;27;20031;-63
2022/01/10 02:27:56;;;;;;;6.10;4.22;;;;;;;19.29;23.99;98990.56;5140253;27;20037;-63
2022/01/10 02:30:22;;;;;;;6.03;4.25;;;;;;;19.31;24.04;98998.44;5152813;27;20030;-63
2022/01/10 02:32:48;;;;;;;7.60;4.55;;;;;;;19.32;24.11;98992.06;5156216;27;20042;-63
2022/01/10 02:35:21;;;;;;;5.65;3.80;;;;;;;19.34;24.13;98998.03;5156538;27;20034;-64
2022/01/10 02:37:48;;;;;;;8.18;5.75;;;;;;;19.34;23.91;98995.34;5154581;27;20031;-62
2022/01/10 02:40:15;;;;;;;6.82;4.53;;;;;;;19.29;24.02;99000.47;5155667;27;20045;-62
2022/01/10 02:42:41;;;;;;;6.25;4.85;;;;;;;19.25;23.59;98993.81;5155035;27;20041;-62
2022/01/10 02:45:07;;;;;;;8.60;4.28;;;;;;;19.22;23.79;98995.03;5156746;27;20031;-62
2022/01/10 02:47:32;;;;;;;7.50;4.50;;;;;;;19.19;23.80;98980.13;5156443;27;20154;-62
2022/01/10 02:49:58;;;;;;;6.50;4.00;;;;;;;19.18;23.81;98994.59;5156580;27;20031;-63
2022/01/10 02:52:24;;;;;;;8.20;4.30;;;;;;;19.15;23.86;98994.97;5155958;27;20032;-62
2022/01/10 02:54:49;;;;;;;5.90;4.78;;;;;;;19.14;23.85;98997.81;5156522;27;20034;-63
2022/01/10 02:57:15;;;;;;;5.97;3.70;;;;;;;19.10;23.71;99002.75;5156442;27;20030;-63
2022/01/10 02:59:41;;;;;;;6.07;3.95;;;;;;;19.07;23.88;99000.44;5156476;27;20030;-63
2022/01/10 03:02:08;;;;;;;7.35;4.38;;;;;;;19.06;23.74;99002.31;5155839;27;20053;-62
2022/01/10 03:04:34;;;;;;;7.70;4.20;;;;;;;19.02;23.99;98995.66;5155297;27;20045;-63
2022/01/10 03:07:00;;;;;;;7.22;4.55;;;;;;;18.99;23.79;98987.97;5141851;27;20030;-62
2022/01/10 03:09:25;;;;;;;6.50;4.30;;;;;;;19.00;23.91;98991.50;5155400;27;20117;-62
2022/01/10 03:11:51;;;;;;;6.30;4.45;;;;;;;18.98;23.63;98994.34;5156345;27;20027;-63
2022/01/10 03:14:17;;;;;;;6.78;3.92;;;;;;;18.97;23.82;99003.41;5155486;27;20039;-63
2022/01/10 03:16:43;;;;;;;5.80;4.28;;;;;;;18.96;24.20;99003.63;5155755;27;20038;-63
2022/01/10 03:19:08;;;;;;;6.43;3.80;;;;;;;18.93;23.54;99007.47;5137671;27;20401;-62
2022/01/10 03:21:35;;;;;;;5.65;4.20;;;;;;;18.94;23.62;99010.97;5156222;27;20113;-63
2022/01/10 03:24:01;;;;;;;6.15;4.03;;;;;;;18.92;23.52;99006.63;5154779;27;20114;-62
2022/01/10 03:26:27;;;;;;;6.57;4.45;;;;;;;18.91;23.64;99010.34;5153383;27;20552;-62
2022/01/10 03:28:53;;;;;;;6.43;4.20;;;;;;;18.90;23.79;99018.56;5155562;27;20033;-62
2022/01/10 03:31:19;;;;;;;6.75;4.38;;;;;;;18.87;23.72;99014.44;5155568;27;20114;-63
2022/01/10 03:33:45;;;;;;;7.90;4.40;;;;;;;18.89;23.58;99017.75;5155406;27;20022;-62
2022/01/10 03:36:11;;;;;;;6.68;4.90;;;;;;;18.88;23.53;99016.09;5155499;27;20038;-63
2022/01/10 03:38:37;;;;;;;6.93;4.72;;;;;;;18.90;23.49;99019.41;5155235;27;20029;-62
2022/01/10 03:41:02;;;;;;;6.88;4.55;;;;;;;18.90;23.64;99024.75;5155378;27;20079;-62
2022/01/10 03:43:28;;;;;;;6.03;4.13;;;;;;;18.90;23.65;99026.63;5144106;27;20033;-62
2022/01/10 03:45:54;;;;;;;6.15;4.78;;;;;;;18.89;23.68;99022.28;5155770;27;20053;-63
2022/01/10 03:48:20;;;;;;;6.30;4.63;;;;;;;18.88;23.68;99023.28;5154478;27;20030;-62
2022/01/10 03:50:45;;;;;;;7.00;5.05;;;;;;;18.87;23.67;99024.31;5155428;27;20109;-64
2022/01/10 03:53:11;;;;;;;7.60;4.65;;;;;;;18.88;23.55;99020.59;5155270;27;20030;-62
2022/01/10 03:55:38;;;;;;;6.15;4.57;;;;;;;18.87;23.64;99025.16;5155385;27;20026;-63
2022/01/10 03:58:03;;;;;;;6.15;4.72;;;;;;;18.88;23.59;99021.47;5152694;27;20027;-63
2022/01/10 04:00:29;;;;;;;7.50;5.03;;;;;;;18.87;23.81;99027.84;5154990;27;20034;-62
2022/01/10 04:03:03;;;;;;;6.80;5.05;;;;;;;18.85;23.58;99024.50;5154447;27;20395;-63
2022/01/10 04:05:29;;;;;;;9.55;5.00;;;;;;;18.85;23.60;99021.81;5155108;27;20113;-63
2022/01/10 04:07:54;;;;;;;6.75;4.32;;;;;;;18.85;23.64;99024.50;5154668;27;20433;-63
2022/01/10 04:10:20;;;;;;;9.05;5.13;;;;;;;18.84;23.85;99027.34;5152961;27;20061;-63
2022/01/10 04:12:45;;;;;;;7.45;4.50;;;;;;;18.81;24.01;99031.25;5154429;27;20034;-63
2022/01/10 04:15:11;;;;;;;7.85;4.65;;;;;;;18.81;23.78;99033.94;5154560;27;20397;-63
2022/01/10 04:17:37;;;;;;;9.15;4.50;;;;;;;18.83;23.61;99033.72;5154421;27;20121;-63
2022/01/10 04:20:04;;;;;;;9.07;4.80;;;;;;;18.82;23.70;99021.38;5154496;27;20022;-64
2022/01/10 04:22:30;;;;;;;6.90;4.80;;;;;;;18.81;23.74;99019.72;5153736;27;20038;-63
2022/01/10 04:24:56;;;;;;;6.10;5.07;;;;;;;18.78;23.68;99028.94;5151887;27;20034;-63
2022/01/10 04:27:21;;;;;;;6.45;4.75;;;;;;;18.76;23.67;99030.97;5142218;27;20118;-63
2022/01/10 04:29:47;;;;;;;9.50;4.70;;;;;;;18.77;23.67;99032.63;5133911;27;20031;-63
2022/01/10 04:32:12;;;;;;;7.15;4.65;;;;;;;18.76;23.68;99031.81;5151032;27;20113;-63
2022/01/10 04:34:40;;;;;;;6.95;5.20;;;;;;;18.77;23.75;99032.63;5154395;27;20058;-63
2022/01/10 04:37:06;;;;;;;10.15;5.40;;;;;;;18.78;23.92;99025.44;5153829;27;20026;-63
2022/01/10 04:39:32;;;;;;;7.72;4.82;;;;;;;18.78;23.67;99028.13;5157118;27;20022;-63
2022/01/10 04:41:58;;;;;;;8.52;5.07;;;;;;;18.79;23.63;99037.81;5173631;27;20054;-63
2022/01/10 04:44:24;;;;;;;6.53;4.13;;;;;;;18.76;23.71;99045.22;5154200;27;20037;-63
2022/01/10 04:46:51;;;;;;;6.57;4.57;;;;;;;18.76;23.88;99047.91;5153995;27;20030;-63
2022/01/10 04:49:21;;;;;;;6.07;4.70;;;;;;;18.77;23.80;99046.03;5153736;27;20041;-63
2022/01/10 04:51:50;;;;;;;6.63;5.00;;;;;;;18.79;23.96;99045.88;5154339;27;20037;-63
2022/01/10 04:54:17;;;;;;;6.95;4.80;;;;;;;18.81;23.85;99058.06;5153519;27;20042;-63
2022/01/10 04:56:44;;;;;;;6.55;4.50;;;;;;;18.80;23.94;99051.03;5154205;27;20041;-63
2022/01/10 04:59:10;;;;;;;9.43;5.05;;;;;;;18.80;23.85;99051.03;5153810;27;20113;-63
2022/01/10 05:01:35;;;;;;;7.50;5.22;;;;;;;18.80;24.11;99059.06;5153137;27;20134;-64
2022/01/10 05:04:01;;;;;;;6.28;4.28;;;;;;;18.81;24.06;99060.72;5154100;27;20042;-63
2022/01/10 05:06:27;;;;;;;6.53;4.32;;;;;;;18.83;23.96;99060.53;5135354;27;20035;-64
2022/01/10 05:08:52;;;;;;;7.57;5.35;;;;;;;18.81;24.03;99065.28;5133692;27;20482;-64
2022/01/10 05:11:19;;;;;;;5.82;4.13;;;;;;;18.78;24.09;99058.41;5143722;27;20512;-63
2022/01/10 05:13:45;;;;;;;6.47;4.15;;;;;;;18.79;24.04;99059.25;5153686;27;20565;-64
2022/01/10 05:16:12;;;;;;;8.32;5.20;;;;;;;18.80;24.17;99058.25;5153823;27;20109;-64
2022/01/10 05:18:38;;;;;;;6.85;4.68;;;;;;;18.80;24.17;99060.94;5153285;27;20121;-63
2022/01/10 05:21:04;;;;;;;6.53;4.90;;;;;;;18.80;23.75;99072.47;5153784;27;20031;-63
2022/01/10 05:23:30;;;;;;;6.05;4.80;;;;;;;18.80;24.00;99067.09;5154345;27;20035;-64
2022/01/10 05:25:56;;;;;;;6.72;4.63;;;;;;;18.81;24.13;99068.78;5157910;27;20536;-63
2022/01/10 05:28:21;;;;;;;8.27;4.78;;;;;;;18.80;24.04;99085.88;5157412;27;20068;-63
2022/01/10 05:30:48;;;;;;;7.05;4.55;;;;;;;18.82;23.96;99089.19;5157613;27;20046;-63
2022/01/10 05:33:14;;;;;;;5.65;4.25;;;;;;;18.82;23.93;99080.34;5157375;27;20015;-63
2022/01/10 05:35:40;;;;;;;8.05;4.80;;;;;;;18.81;23.87;99087.53;5157723;27;20496;-63
2022/01/10 05:38:06;;;;;;;6.68;4.55;;;;;;;18.81;24.08;99092.91;5151315;27;20019;-63
2022/01/10 05:40:32;;;;;;;7.13;4.40;;;;;;;18.82;23.81;99099.91;5136880;27;20402;-63
2022/01/10 05:42:58;;;;;;;7.85;4.88;;;;;;;18.82;23.94;99102.59;5136669;27;20091;-63
2022/01/10 05:45:24;;;;;;;6.53;5.03;;;;;;;18.81;23.86;99102.78;5136555;27;20062;-64
2022/01/10 05:47:49;;;;;;;6.70;4.25;;;;;;;18.82;23.88;99107.16;5140559;27;20028;-63
2022/01/10 05:50:19;;;;;;;7.20;5.10;;;;;;;18.82;23.90;99116.00;5157235;27;20030;-63
2022/01/10 05:52:45;;;;;;;4.97;4.20;;;;;;;18.82;24.01;99104.47;5157595;27;20384;-63
2022/01/10 05:55:12;;;;;;;7.72;4.63;;;;;;;18.83;23.87;99111.47;5157573;27;20029;-64
2022/01/10 05:57:37;;;;;;;6.07;4.45;;;;;;;18.81;23.96;99110.84;5157300;27;20031;-64
2022/01/10 06:00:04;;;;;;;6.50;4.25;;;;;;;18.80;23.97;99110.00;5157240;27;20022;-64
2022/01/10 06:02:29;;;;;;;6.88;4.45;;;;;;;18.80;24.03;99106.50;5156598;27;20513;-63
2022/01/10 06:04:57;;;;;;;7.15;3.53;;;;;;;18.80;24.06;99115.34;5157127;27;20027;-64
2022/01/10 06:07:22;;;;;;;5.97;4.45;;;;;;;18.77;24.13;99121.06;5139699;27;20039;-64
2022/01/10 06:09:48;;;;;;;6.43;3.78;;;;;;;18.76;24.14;99122.94;5136536;27;20027;-63
2022/01/10 06:12:13;;;;;;;6.10;4.18;;;;;;;18.79;24.06;99118.22;5136753;27;20023;-63
2022/01/10 06:14:39;;;;;;;5.70;4.15;;;;;;;18.81;24.19;99121.56;5156887;27;20027;-62
2022/01/10 06:17:05;;;;;;;5.38;4.22;;;;;;;18.78;24.06;99119.25;5151255;27;20042;-62
2022/01/10 06:19:30;;;;;;;5.07;3.85;;;;;;;18.77;24.01;99115.72;5156868;27;20080;-63
2022/01/10 06:21:56;;;;;;;5.18;3.53;;;;;;;18.75;24.14;99115.91;5156869;27;20026;-62
2022/01/10 06:24:21;;;;;;;7.55;4.43;;;;;;;18.76;24.16;99122.09;5156666;27;20038;-63
2022/01/10 06:26:47;;;;;;;6.78;4.28;;;;;;;18.75;24.06;99123.09;5166744;27;20049;-63
2022/01/10 06:29:12;;;;;;;6.05;4.13;;;;;;;18.76;24.19;99128.28;5156507;27;20544;-64
2022/01/10 06:31:38;;;;;;;6.97;4.32;;;;;;;18.78;24.08;99135.31;5154969;27;20031;-62
2022/01/10 06:34:03;;;;;;;6.28;4.15;;;;;;;18.76;24.15;99124.78;5156381;27;20034;-63
2022/01/10 06:36:28;;;;;;;5.43;3.78;;;;;;;18.76;24.13;99139.03;5156686;27;20101;-63
2022/01/10 06:38:54;;;;;;;5.85;3.80;;;;;;;18.79;24.02;99132.44;5155707;27;20400;-63
2022/01/10 06:41:20;;;;;;;5.13;3.60;;;;;;;18.79;24.01;99132.44;5156818;27;20046;-63
2022/01/10 06:43:45;;;;;;;4.78;3.53;;;;;;;18.78;24.04;99128.09;5147506;27;20031;-63
2022/01/10 06:46:11;;;;;;;6.72;3.95;;;;;;;18.78;24.17;99136.16;5117711;27;20118;-64
2022/01/10 06:48:36;;;;;;;5.57;3.67;;;;;;;18.78;24.07;99135.31;5149069;27;20035;-64
2022/01/10 06:51:02;;;;;;;4.90;3.75;;;;;;;18.80;24.17;99141.34;5156587;27;20034;-63
2022/01/10 06:53:27;;;;;;;5.50;3.42;;;;;;;18.78;24.08;99140.69;5155746;27;20079;-64
2022/01/10 06:55:53;;;;;;;5.25;3.58;;;;;;;18.79;24.13;99143.16;5156404;27;20033;-64
2022/01/10 06:58:19;;;;;;;6.07;3.60;;;;;;;18.79;23.85;99140.50;5153022;27;20035;-64
2022/01/10 07:00:45;;;;;;;4.20;3.40;;;;;;;18.81;23.93;99137.66;5155840;27;20039;-64
2022/01/10 07:03:11;;;;;;;5.22;2.88;;;;;;;18.82;23.92;99144.66;5155013;27;20512;-64
2022/01/10 07:05:36;;;;;;;5.72;3.25;;;;;;;18.80;24.06;99146.69;5156262;27;20153;-64
2022/01/10 07:08:03;;;;;;;6.10;3.30;;;;;;;18.82;24.13;99148.16;5155731;27;20030;-64
2022/01/10 07:10:28;;;;;;;5.28;3.25;;;;;;;18.82;24.12;99144.66;5153704;27;20046;-64
2022/01/10 07:12:54;;;;;;;6.20;3.05;;;;;;;18.81;23.98;99138.47;5155491;27;20035;-63
2022/01/10 07:15:20;;;;;;;3.67;2.83;;;;;;;18.81;24.07;99148.38;5155894;27;20038;-64
2022/01/10 07:17:46;;;;;;;5.90;3.63;;;;;;;18.81;24.05;99148.38;5156193;27;20052;-64
2022/01/10 07:20:12;;;;;;;5.30;3.03;;;;;;;18.80;23.94;99142.16;5155701;27;20030;-64
2022/01/10 07:22:37;;;;;;;3.72;2.85;;;;;;;18.81;24.10;99149.19;5154811;27;20062;-63
2022/01/10 07:25:03;;;;;;;4.20;2.67;;;;;;;18.81;23.91;99151.03;5153922;27;20034;-64
2022/01/10 07:27:29;;;;;;;5.45;3.30;;;;;;;18.80;23.99;99150.19;5141940;27;20039;-64
2022/01/10 07:29:55;;;;;;;4.82;2.75;;;;;;;18.82;24.06;99153.53;5135120;27;20121;-63
2022/01/10 07:32:20;;;;;;;4.60;2.80;;;;;;;18.84;23.87;99153.34;5135035;27;20031;-64
2022/01/10 07:34:46;;;;;;;4.13;2.58;;;;;;;18.84;24.15;99146.13;5155285;27;20056;-64
2022/01/10 07:37:11;;;;;;;4.32;2.53;;;;;;;18.84;23.73;99153.34;5154952;27;20034;-63
2022/01/10 07:39:37;;;;;;;4.03;2.38;;;;;;;18.87;23.71;99159.19;5155823;27;20035;-63
2022/01/10 07:42:03;;;;;;;4.35;2.58;;;;;;;18.89;23.96;99156.31;5155200;27;20125;-63
2022/01/10 07:44:28;;;;;;;4.22;2.75;;;;;;;18.88;23.83;99155.47;5155211;27;20045;-63
2022/01/10 07:46:58;;;;;;;4.10;2.55;;;;;;;18.89;23.97;99157.16;5154535;27;20034;-63
2022/01/10 07:49:24;;;;;;;3.78;2.58;;;;;;;18.90;24.04;99166.00;5155269;27;20450;-64
2022/01/10 07:51:51;;;;;;;5.72;2.80;;;;;;;18.89;24.09;99167.88;5154553;27;20038;-63
2022/01/10 07:54:17;;;;;;;4.72;2.70;;;;;;;18.92;24.06;99167.47;5154575;27;20034;-63
2022/01/10 07:56:42;;;;;;;6.03;3.05;;;;;;;18.92;24.06;99172.84;5153492;27;20041;-63
2022/01/10 07:59:07;;;;;;;5.18;2.42;;;;;;;18.94;24.00;99175.38;5138776;27;20065;-63
2022/01/10 08:01:33;;;;;;;3.25;2.65;;;;;;;18.95;24.00;99168.16;5134239;27;20046;-64
2022/01/10 08:03:59;;;;;;;4.70;2.90;;;;;;;18.96;23.56;99167.16;5149546;27;20054;-64
2022/01/10 08:06:24;;;;;;;3.75;2.33;;;;;;;18.97;23.85;99163.44;5154671;27;20079;-64
2022/01/10 08:08:50;;;;;;;4.82;2.67;;;;;;;18.99;23.79;99164.94;5155019;27;20041;-63
2022/01/10 08:11:16;;;;;;;4.45;2.75;;;;;;;19.01;23.94;99167.44;5154604;27;20121;-60
2022/01/10 08:13:42;;;;;;;4.40;2.53;;;;;;;19.01;23.81;99162.06;5152905;27;20126;-62
2022/01/10 08:16:08;;;;;;;3.60;2.28;;;;;;;19.02;23.92;99166.44;5154273;27;20043;-63
2022/01/10 08:18:35;;;;;;;4.68;2.00;;;;;;;19.04;23.74;99164.41;5154221;27;20094;-63
2022/01/10 08:21:01;;;;;;;5.05;2.47;;;;;;;19.04;23.61;99172.44;5154434;27;20441;-63
2022/01/10 08:23:28;;;;;;;4.50;2.00;;;;;;;19.01;23.52;99162.91;5153981;27;20070;-63
2022/01/10 08:25:53;;;;;;;3.17;2.10;;;;;;;19.01;23.66;99164.75;5152382;27;20068;-64
2022/01/10 08:28:19;;;;;;;3.92;2.10;;;;;;;19.01;23.63;99167.44;5143787;27;20125;-62
2022/01/10 08:30:45;;;;;;;4.10;2.67;;;;;;;19.00;23.79;99163.09;5154457;27;20084;-63
2022/01/10 08:33:10;;;;;;;4.72;2.47;;;;;;;19.00;23.67;99165.78;5154293;27;20075;-63
2022/01/10 08:35:36;;;;;;;4.20;2.50;;;;;;;19.00;23.74;99173.81;5154508;27;20044;-63
2022/01/10 08:38:02;;;;;;;4.28;2.08;;;;;;;18.99;23.59;99167.59;5148620;27;20096;-62
2022/01/10 08:40:28;;;;;;;6.30;2.55;;;;;;;19.00;23.63;99171.94;5140994;27;20035;-63
2022/01/10 08:42:53;;;;;;;4.55;2.40;;;;;;;19.01;23.85;99172.81;5153935;27;20030;-64
2022/01/10 08:45:19;;;;;;;7.40;2.20;;;;;;;19.03;23.80;99173.44;5154435;27;20026;-62
2022/01/10 08:47:46;;;;;;;3.25;2.22;;;;;;;19.05;23.63;99166.03;5153881;27;20026;-64
2022/01/10 08:50:12;;;;;;;3.28;2.20;;;;;;;19.05;23.41;99166.88;5154298;27;20548;-63
2022/01/10 08:52:39;;;;;;;4.28;2.45;;;;;;;19.06;23.67;99168.53;5153390;27;20037;-64
2022/01/10 08:55:08;;;;;;;3.75;2.00;;;;;;;19.08;23.46;99172.88;5151908;27;20034;-64
2022/01/10 08:57:34;;;;;;;5.20;2.45;;;;;;;19.10;23.56;99174.34;5152919;27;20033;-62
2022/01/10 09:00:00;;;;;;;3.22;2.22;;;;;;;19.10;23.37;99177.03;5154397;27;20035;-64
2022/01/10 09:02:25;;;;;;;2.97;2.05;;;;;;;19.10;23.57;99181.59;5144022;27;20058;-62
2022/01/10 09:04:51;;;;;;;4.18;2.33;;;;;;;19.11;23.62;99189.44;5133683;28;20062;-58
2022/01/10 09:07:17;;;;;;;4.00;2.03;;;;;;;19.17;23.82;99185.19;5133571;27;20035;-62
2022/01/10 09:09:43;;;;;;;3.17;2.20;;;;;;;19.18;23.77;99182.31;5153086;27;20620;-62
2022/01/10 09:12:10;;;;;;;2.95;1.90;;;;;;;19.19;23.93;99186.66;5153725;27;20117;-64
2022/01/10 09:14:36;;;;;;;3.25;2.20;;;;;;;19.20;23.89;99193.69;5154045;27;20087;-64
2022/01/10 09:17:03;;;;;;;4.30;2.33;;;;;;;19.22;24.02;99185.47;5153681;27;20435;-62
2022/01/10 09:19:29;;;;;;;4.78;2.42;;;;;;;19.21;23.99;99183.78;5154425;27;20041;-62
2022/01/10 09:21:54;;;;;;;3.08;2.05;;;;;;;19.24;23.81;99182.59;5153971;27;20030;-62
2022/01/10 09:24:21;;;;;;;3.28;2.20;;;;;;;19.22;23.82;99177.41;5151833;27;20549;-62
2022/01/10 09:26:46;;;;;;;4.13;2.30;;;;;;;19.20;23.54;99171.41;5146333;27;20038;-64
2022/01/10 09:29:12;;;;;;;3.33;2.10;;;;;;;19.18;23.71;99176.13;5152309;27;20457;-63
2022/01/10 09:31:37;;;;;;;3.45;2.40;;;;;;;19.17;23.77;99179.81;5153754;27;20125;-63
2022/01/10 09:34:03;;;;;;;3.92;2.03;;;;;;;19.16;23.56;99168.25;5152743;27;20026;-63
2022/01/10 09:36:31;;;;;;;3.15;1.80;;;;;;;19.16;23.57;99170.94;5153628;27;20034;-63
2022/01/10 09:38:57;;;;;;;4.03;2.05;;;;;;;19.18;23.53;99173.44;5152326;27;20041;-63
2022/01/10 09:41:23;;;;;;;2.58;2.17;;;;;;;19.17;23.54;99163.72;5152770;27;20489;-63
2022/01/10 09:43:59;;;;;;;4.38;2.40;;;;;;;19.14;23.64;99172.97;5153283;27;20414;-63
2022/01/10 09:46:26;;;;;;;4.22;2.20;;;;;;;19.13;23.59;99168.63;5135063;27;20034;-62
2022/01/10 09:48:53;;;;;;;4.50;2.20;;;;;;;19.14;23.57;99164.09;5152577;27;20034;-63
2022/01/10 09:51:19;;;;;;;3.63;2.38;;;;;;;19.12;23.70;99169.66;5153007;27;20065;-62
2022/01/10 09:53:45;;;;;;;3.60;1.80;;;;;;;19.12;23.63;99171.47;5151572;27;20039;-63
2022/01/10 09:56:11;;;;;;;4.13;2.30;;;;;;;19.12;23.85;99177.69;5153589;27;20083;-62
2022/01/10 09:58:36;;;;;;;3.53;1.80;;;;;;;19.11;23.96;99181.38;5152906;27;20163;-62
2022/01/10 10:01:03;;;;;;;4.50;2.40;;;;;;;19.13;24.02;99178.50;5153647;27;20035;-65
2022/01/10 10:03:29;;;;;;;5.00;2.60;;;;;;;19.15;23.96;99192.56;5153054;27;20050;-64
2022/01/10 10:05:56;;;;;;;5.88;1.90;;;;;;;19.15;24.06;99188.06;5153334;27;20045;-62
2022/01/10 10:08:24;;;;;;;2.60;1.80;;;;;;;19.18;24.05;99198.41;5152453;27;20038;-62
2022/01/10 10:10:50;;;;;;;3.33;2.03;;;;;;;19.21;24.08;99198.03;5155211;27;20060;-63
2022/01/10 10:13:16;;;;;;;2.40;1.40;;;;;;;19.24;24.14;99201.34;5156137;27;20042;-63
2022/01/10 10:15:44;;;;;;;6.40;2.17;;;;;;;19.25;24.53;99195.81;5156657;27;20552;-62
2022/01/10 10:18:14;;;;;;;2.80;1.63;;;;;;;19.29;25.12;99190.91;5156084;27;20033;-62
2022/01/10 10:20:41;;;;;;;6.35;2.30;;;;;;;19.30;25.26;99181.84;5156020;27;20049;-63
2022/01/10 10:23:13;;;;;;;6.85;2.75;;;;;;;19.32;25.41;99183.31;5150561;27;20039;-62
2022/01/10 10:25:45;;;;;;;7.82;3.67;;;;;;;19.35;25.53;99166.00;5153185;27;20038;-64
2022/01/10 10:28:12;;;;;;;5.93;2.42;;;;;;;19.38;25.49;99172.88;5156484;27;20049;-63
2022/01/10 10:30:38;;;;;;;16.20;2.53;;;;;;;19.39;25.68;99183.41;5156595;27;20087;-63
2022/01/10 10:33:15;;;;;;;9.00;3.08;;;;;;;19.43;25.67;99181.16;5155982;27;20441;-64
2022/01/10 10:35:42;;;;;;;7.97;3.28;;;;;;;19.44;26.03;99177.47;5164105;27;20026;-63
2022/01/10 10:38:08;;;;;;;8.00;3.20;;;;;;;19.47;26.05;99183.31;5171548;27;20035;-63
2022/01/10 10:40:42;;;;;;;6.20;2.85;;;;;;;19.52;26.18;99180.88;5152489;27;20070;-64
2022/01/10 10:43:09;;;;;;;5.55;3.10;;;;;;;19.54;26.33;99183.41;5176867;27;20034;-63
2022/01/10 10:45:36;;;;;;;6.63;3.17;;;;;;;19.56;26.09;99188.56;5167594;27;20030;-64
2022/01/10 10:48:06;;;;;;;8.95;3.50;;;;;;;19.55;26.35;99193.09;5145565;27;20042;-64
2022/01/10 10:50:43;;;;;;;5.90;2.75;;;;;;;19.57;25.71;99203.66;5166350;27;20501;-65
2022/01/10 10:53:10;;;;;;;4.88;2.70;;;;;;;19.55;25.68;99198.47;5156922;27;20065;-62
2022/01/10 10:55:40;;;;;;;6.78;2.72;;;;;;;19.53;26.18;99197.81;5137011;27;20062;-65
2022/01/10 10:58:07;;;;;;;8.10;3.03;;;;;;;19.49;26.40;99183.94;5159153;27;20061;-65
2022/01/10 11:00:34;;;;;;;6.15;2.38;;;;;;;19.47;26.21;99186.00;5155878;27;20053;-64
2022/01/10 11:02:59;;;;;;;4.80;2.50;;;;;;;19.46;26.40;99194.22;5155698;27;20134;-63
2022/01/10 11:05:25;;;;;;;5.85;2.92;;;;;;;19.45;26.38;99193.41;5156094;27;20054;-63
2022/01/10 11:07:51;;;;;;;5.22;2.45;;;;;;;19.43;26.43;99178.47;5153829;27;20035;-64
2022/01/10 11:10:17;;;;;;;10.45;3.75;;;;;;;19.41;26.23;99188.59;5155814;27;20030;-64
2022/01/10 11:12:49;;;;;;;4.43;2.20;;;;;;;19.36;26.33;99189.13;5155764;27;20049;-64
2022/01/10 11:15:14;;;;;;;8.18;2.30;;;;;;;19.35;26.28;99203.56;5156080;27;20079;-63
2022/01/10 11:17:41;;;;;;;6.07;2.55;;;;;;;19.33;26.21;99197.59;5155808;27;20027;-62
2022/01/10 11:20:08;;;;;;;5.55;2.28;;;;;;;19.32;26.16;99196.72;5155981;27;20035;-64
2022/01/10 11:22:36;;;;;;;5.93;2.67;;;;;;;19.32;26.38;99199.41;5153529;27;20035;-65
2022/01/10 11:25:03;;;;;;;4.82;2.92;;;;;;;19.29;26.46;99196.28;5155902;27;20078;-63
2022/01/10 11:27:34;;;;;;;5.80;3.35;;;;;;;19.29;26.38;99189.06;5142305;27;20120;-66
2022/01/10 11:30:01;;;;;;;;;;;;;;;19.19;26.62;99189.31;5151889;27;20520;-65
2022/01/10 11:33:04;;;;;;;6.25;3.35;;;;;;;19.22;26.61;99188.16;5154978;27;19915;-64
2022/01/10 11:35:32;;;;;;;11.40;3.63;;;;;;;19.24;26.63;99185.25;5134788;27;20058;-65
2022/01/10 11:37:59;;;;;;;6.88;3.10;;;;;;;19.26;26.72;99181.41;5134302;27;20038;-64
2022/01/10 11:40:26;;;;;;;9.13;3.97;;;;;;;19.29;26.73;99188.22;5148926;27;20035;-64
2022/01/10 11:42:59;;;;;;;8.85;3.53;;;;;;;19.30;27.10;99196.09;5154853;27;20030;-65
2022/01/10 11:45:26;;;;;;;6.78;2.83;;;;;;;19.30;26.71;99206.81;5116109;27;20081;-63